createdAt,value
2022-08-22T00:01:32.944Z,3.33
2022-08-22T00:02:54.565Z,3.20
2022-08-22T00:03:08.205Z,3.00
2022-08-22T00:04:44.745Z,3.47
2022-08-22T00:07:20.354Z,3.53
2022-08-22T00:10:04.392Z,3.03
2022-08-22T00:12:37.444Z,3.45
2022-08-22T00:15:42.464Z,2.83
2022-08-22T00:18:31.774Z,3.08
2022-08-22T00:21:11.163Z,3.05
2022-08-22T00:23:45.933Z,2.80
2022-08-22T00:26:22.059Z,3.13
2022-08-22T00:28:58.829Z,3.05
2022-08-22T00:31:31.985Z,3.58
2022-08-22T00:34:06.012Z,3.40
2022-08-22T00:37:09.726Z,3.53
2022-08-22T00:39:45.151Z,3.20
2022-08-22T00:42:36.596Z,3.25
2022-08-22T00:45:31.520Z,2.92
2022-08-22T00:48:01.059Z,3.05
2022-08-22T00:50:56.196Z,3.58
2022-08-22T00:53:32.029Z,4.35
2022-08-22T00:56:14.953Z,3.15
2022-08-22T00:58:57.617Z,3.60
2022-08-22T01:01:35.824Z,3.72
2022-08-22T01:04:11.487Z,4.30
2022-08-22T01:06:43.890Z,3.17
2022-08-22T01:09:48.240Z,3.33
2022-08-22T01:12:25.718Z,3.30
2022-08-22T01:15:06.058Z,3.10
2022-08-22T01:17:47.534Z,3.58
2022-08-22T01:20:36.169Z,3.60
2022-08-22T01:23:17.801Z,4.03
2022-08-22T01:26:10.725Z,3.10
2022-08-22T01:29:28.282Z,3.80
2022-08-22T01:32:18.070Z,4.35
2022-08-22T01:34:53.556Z,3.88
2022-08-22T01:37:49.347Z,3.72
2022-08-22T01:40:37.684Z,4.72
2022-08-22T01:43:59.116Z,3.83
2022-08-22T01:46:37.242Z,3.75
2022-08-22T01:49:33.028Z,3.95
2022-08-22T01:52:14.424Z,3.90
2022-08-22T01:54:48.245Z,4.28
2022-08-22T01:57:14.937Z,3.47
2022-08-22T01:59:44.704Z,3.97
2022-08-22T02:02:41.532Z,3.60
2022-08-22T02:05:20.572Z,3.53
2022-08-22T02:08:13.580Z,3.38
2022-08-22T02:11:06.908Z,3.67
2022-08-22T02:13:57.084Z,3.85
2022-08-22T02:16:37.581Z,3.78
2022-08-22T02:19:24.684Z,3.80
2022-08-22T02:22:02.187Z,4.15
2022-08-22T02:25:04.426Z,3.72
2022-08-22T02:27:58.955Z,4.10
2022-08-22T02:30:42.286Z,3.63
2022-08-22T02:33:13.376Z,3.92
2022-08-22T02:35:48.302Z,4.05
2022-08-22T02:38:24.216Z,3.58
2022-08-22T02:41:06.168Z,4.15
2022-08-22T02:43:49.661Z,4.60
2022-08-22T02:46:28.937Z,4.00
2022-08-22T02:49:12.410Z,4.22
2022-08-22T02:51:48.125Z,4.00
2022-08-22T02:54:20.731Z,4.15
2022-08-22T02:57:09.551Z,4.40
2022-08-22T03:00:31.891Z,4.40
2022-08-22T03:03:01.214Z,4.30
2022-08-22T03:05:27.921Z,4.55
2022-08-22T03:08:25.897Z,4.30
2022-08-22T03:11:27.473Z,4.25
2022-08-22T03:13:58.814Z,5.40
2022-08-22T03:16:34.274Z,4.88
2022-08-22T03:19:39.258Z,5.00
2022-08-22T03:22:11.574Z,4.35
2022-08-22T03:24:55.452Z,4.75
2022-08-22T03:27:32.508Z,4.82
2022-08-22T03:30:21.643Z,6.22
2022-08-22T03:32:54.554Z,5.00
2022-08-22T03:35:27.153Z,5.15
2022-08-22T03:37:58.808Z,4.90
2022-08-22T03:40:41.814Z,5.63
2022-08-22T03:43:17.341Z,5.20
2022-08-22T03:46:21.608Z,5.05
2022-08-22T03:49:13.012Z,5.65
2022-08-22T03:51:40.812Z,6.03
2022-08-22T03:54:30.350Z,5.50
2022-08-22T03:57:20.745Z,5.43
2022-08-22T04:00:12.675Z,5.32
2022-08-22T04:03:00.321Z,5.75
2022-08-22T04:06:12.611Z,6.15
2022-08-22T04:09:03.963Z,5.38
2022-08-22T04:11:50.192Z,6.13
2022-08-22T04:14:25.747Z,6.45
2022-08-22T04:17:29.837Z,6.18
2022-08-22T04:20:16.632Z,6.68
2022-08-22T04:23:05.127Z,6.63
2022-08-22T04:25:36.513Z,5.60
2022-08-22T04:28:16.701Z,5.85
2022-08-22T04:30:54.265Z,5.80
2022-08-22T04:33:28.405Z,6.28
2022-08-22T04:36:12.192Z,5.97
2022-08-22T04:38:47.754Z,5.97
2022-08-22T04:41:24.460Z,7.22
2022-08-22T04:43:54.487Z,6.05
2022-08-22T04:46:37.136Z,5.53
2022-08-22T04:49:25.060Z,6.95
2022-08-22T04:52:24.287Z,5.82
2022-08-22T04:55:15.485Z,6.10
2022-08-22T04:58:01.546Z,6.57
2022-08-22T05:01:11.861Z,5.70
2022-08-22T05:03:45.712Z,5.63
2022-08-22T05:06:13.653Z,6.18
2022-08-22T05:08:40.681Z,5.57
2022-08-22T05:11:08.113Z,5.50
2022-08-22T05:13:58.506Z,6.47
2022-08-22T05:16:29.439Z,5.88
2022-08-22T05:19:05.729Z,6.40
2022-08-22T05:21:36.029Z,7.20
2022-08-22T05:24:09.644Z,7.57
2022-08-22T05:26:38.907Z,7.07
2022-08-22T05:29:10.272Z,7.47
2022-08-22T05:31:44.015Z,7.50
2022-08-22T05:34:14.405Z,8.38
2022-08-22T05:36:44.276Z,7.55
2022-08-22T05:39:17.803Z,7.70
2022-08-22T05:41:45.049Z,7.68
2022-08-22T05:44:36.189Z,7.85
2022-08-22T05:47:06.595Z,6.10
2022-08-22T05:50:02.256Z,6.30
2022-08-22T05:52:40.980Z,6.07
2022-08-22T05:55:16.474Z,7.30
2022-08-22T05:57:48.305Z,6.20
2022-08-22T06:00:19.142Z,6.00
2022-08-22T06:03:11.454Z,7.15
2022-08-22T06:05:41.286Z,6.50
2022-08-22T06:08:21.571Z,6.00
2022-08-22T06:10:51.841Z,5.82
2022-08-22T06:13:32.507Z,6.13
2022-08-22T06:15:59.251Z,4.78
2022-08-22T06:18:27.147Z,6.57
2022-08-22T06:20:56.824Z,5.95
2022-08-22T06:23:54.152Z,5.47
2022-08-22T06:26:21.528Z,5.07
2022-08-22T06:28:55.250Z,5.55
2022-08-22T06:31:34.886Z,6.47
2022-08-22T06:34:10.542Z,5.40
2022-08-22T06:36:40.035Z,5.85
2022-08-22T06:39:26.558Z,7.80
2022-08-22T06:42:02.993Z,6.82
2022-08-22T06:44:36.066Z,7.80
2022-08-22T06:47:10.334Z,8.02
2022-08-22T06:49:37.833Z,7.50
2022-08-22T06:52:11.686Z,6.85
2022-08-22T06:54:40.541Z,7.95
2022-08-22T06:57:26.092Z,7.90
2022-08-22T06:59:54.701Z,8.00
2022-08-22T07:02:30.479Z,6.68
2022-08-22T07:04:57.193Z,6.85
2022-08-22T07:07:25.818Z,6.60
2022-08-22T07:09:55.452Z,6.20
2022-08-22T07:12:26.761Z,5.93
2022-08-22T07:14:58.861Z,6.72
2022-08-22T07:17:28.551Z,5.97
2022-08-22T07:20:06.536Z,5.35
2022-08-22T07:22:35.598Z,6.18
2022-08-22T07:25:11.059Z,5.53
2022-08-22T07:27:49.759Z,6.18
2022-08-22T07:30:28.203Z,5.53
2022-08-22T07:33:23.604Z,6.38
2022-08-22T07:36:19.062Z,7.15
2022-08-22T07:38:49.480Z,7.43
2022-08-22T07:41:22.597Z,5.93
2022-08-22T07:44:19.001Z,5.70
2022-08-22T07:47:09.686Z,6.65
2022-08-22T07:49:39.130Z,6.05
2022-08-22T07:52:16.791Z,6.25
2022-08-22T07:54:48.702Z,5.20
2022-08-22T07:57:22.480Z,4.85
2022-08-22T07:59:54.739Z,6.18
2022-08-22T08:02:21.970Z,5.45
2022-08-22T08:04:50.752Z,7.78
2022-08-22T08:07:20.995Z,4.25
2022-08-22T08:09:52.993Z,3.58
2022-08-22T08:12:22.055Z,5.03
2022-08-22T08:14:52.160Z,4.40
2022-08-22T08:17:32.155Z,4.80
2022-08-22T08:20:02.598Z,4.07
2022-08-22T08:22:29.802Z,4.22
2022-08-22T08:24:58.560Z,3.28
2022-08-22T08:27:50.201Z,3.88
2022-08-22T08:30:34.332Z,4.20
2022-08-22T08:33:25.788Z,3.83
2022-08-22T08:36:12.716Z,4.35
2022-08-22T08:38:48.134Z,4.32
2022-08-22T08:41:33.292Z,4.25
2022-08-22T08:44:09.038Z,3.40
2022-08-22T08:46:41.666Z,3.70
2022-08-22T08:49:23.953Z,3.60
2022-08-22T08:52:14.933Z,4.37
2022-08-22T08:55:02.424Z,3.70
2022-08-22T08:57:59.526Z,3.33
2022-08-22T09:00:45.722Z,2.97
2022-08-22T09:03:52.837Z,3.05
2022-08-22T09:06:52.792Z,3.30
2022-08-22T09:09:54.196Z,2.97
2022-08-22T09:12:20.918Z,3.25
2022-08-22T09:15:31.612Z,3.25
2022-08-22T09:18:18.241Z,3.00
2022-08-22T09:21:11.052Z,3.03
2022-08-22T09:24:10.726Z,2.38
2022-08-22T09:26:52.470Z,2.40
2022-08-22T09:29:54.923Z,2.78
2022-08-22T09:32:35.111Z,2.58
2022-08-22T09:35:27.847Z,3.05
2022-08-22T09:38:18.879Z,2.58
2022-08-22T09:41:13.168Z,3.40
2022-08-22T09:44:06.029Z,3.40
2022-08-22T09:47:03.455Z,3.72
2022-08-22T09:49:54.082Z,2.95
2022-08-22T09:52:46.379Z,3.30
2022-08-22T09:55:35.396Z,3.42
2022-08-22T09:58:11.223Z,2.85
2022-08-22T10:00:44.116Z,3.00
2022-08-22T10:03:13.844Z,2.88
2022-08-22T10:05:52.903Z,2.95
2022-08-22T10:08:37.168Z,2.45
2022-08-22T10:11:26.812Z,2.70
2022-08-22T10:14:01.475Z,3.13
2022-08-22T10:16:46.603Z,2.33
2022-08-22T10:19:34.293Z,2.72
2022-08-22T10:22:18.091Z,2.67
2022-08-22T10:25:15.146Z,2.53
2022-08-22T10:27:55.090Z,2.10
2022-08-22T10:30:34.874Z,2.90
2022-08-22T10:33:31.336Z,2.17
2022-08-22T10:36:12.032Z,3.10
2022-08-22T10:38:49.376Z,3.15
2022-08-22T10:41:19.900Z,3.17
2022-08-22T10:44:00.634Z,2.33
2022-08-22T10:46:37.603Z,2.67
2022-08-22T10:49:11.204Z,2.60
2022-08-22T10:51:53.944Z,3.50
2022-08-22T10:54:48.301Z,3.00
2022-08-22T10:57:22.603Z,2.40
2022-08-22T10:59:59.517Z,3.00
2022-08-22T11:02:55.768Z,2.25
2022-08-22T11:05:50.102Z,2.45
2022-08-22T11:08:33.064Z,3.10
2022-08-22T11:11:10.140Z,2.10
2022-08-22T11:13:55.980Z,2.50
2022-08-22T11:16:44.093Z,2.47
2022-08-22T11:19:29.176Z,2.40
2022-08-22T11:22:01.986Z,2.53
2022-08-22T11:24:53.995Z,2.45
2022-08-22T11:27:37.959Z,2.75
2022-08-22T11:30:10.851Z,2.40
2022-08-22T11:33:04.661Z,2.50
2022-08-22T11:35:47.567Z,2.92
2022-08-22T11:38:36.126Z,2.20
2022-08-22T11:41:28.641Z,2.13
2022-08-22T11:44:06.305Z,2.30
2022-08-22T11:46:37.237Z,2.60
2022-08-22T11:49:26.759Z,2.45
2022-08-22T11:52:00.221Z,3.22
2022-08-22T11:55:03.651Z,2.60
2022-08-22T11:57:37.231Z,2.40
2022-08-22T12:00:25.276Z,2.78
2022-08-22T12:03:27.786Z,2.63
2022-08-22T12:06:05.369Z,2.67
2022-08-22T12:08:34.537Z,2.55
2022-08-22T12:11:15.083Z,2.83
2022-08-22T12:14:06.313Z,2.30
2022-08-22T12:16:53.807Z,2.97
2022-08-22T12:20:05.595Z,2.08
2022-08-22T12:22:53.620Z,2.38
2022-08-22T12:25:35.396Z,3.03
2022-08-22T12:28:13.918Z,2.00
2022-08-22T12:31:00.640Z,3.97
2022-08-22T12:33:49.297Z,3.00
2022-08-22T12:36:32.569Z,2.95
2022-08-22T12:39:23.246Z,2.95
2022-08-22T12:42:14.788Z,2.90
2022-08-22T12:45:09.891Z,3.80
2022-08-22T12:47:53.317Z,3.97
2022-08-22T12:50:28.963Z,2.88
2022-08-22T12:53:48.961Z,6.63
2022-08-22T12:56:37.561Z,2.92
2022-08-22T12:59:26.405Z,2.90
2022-08-22T13:01:55.765Z,3.22
2022-08-22T13:04:33.311Z,3.08
2022-08-22T13:07:17.595Z,2.92
2022-08-22T13:09:50.195Z,2.35
2022-08-22T13:12:25.980Z,2.75
2022-08-22T13:15:02.026Z,2.45
2022-08-22T13:17:29.458Z,2.00
2022-08-22T13:20:09.058Z,2.40
2022-08-22T13:22:40.698Z,2.33
2022-08-22T13:25:25.489Z,2.20
2022-08-22T13:28:03.699Z,2.88
2022-08-22T13:30:37.379Z,2.40
2022-08-22T13:33:14.408Z,2.60
2022-08-22T13:35:52.618Z,2.92
2022-08-22T13:38:46.296Z,2.80
2022-08-22T13:41:13.487Z,2.25
2022-08-22T13:44:00.381Z,2.63
2022-08-22T13:46:30.408Z,2.50
2022-08-22T13:49:07.835Z,2.47
2022-08-22T13:51:53.394Z,2.30
2022-08-22T13:54:58.391Z,2.03
2022-08-22T13:57:35.000Z,2.20
2022-08-22T14:00:39.993Z,2.40
2022-08-22T14:03:26.565Z,2.80
2022-08-22T14:05:59.030Z,2.88
2022-08-22T14:08:45.234Z,2.33
2022-08-22T14:11:21.566Z,2.13
2022-08-22T14:13:59.730Z,2.53
2022-08-22T14:16:29.541Z,2.45
2022-08-22T14:19:06.191Z,2.22
2022-08-22T14:21:45.920Z,2.20
2022-08-22T14:24:31.781Z,2.10
2022-08-22T14:27:09.143Z,2.83
2022-08-22T14:29:50.407Z,2.50
2022-08-22T14:32:26.803Z,2.60
2022-08-22T14:35:05.043Z,2.17
2022-08-22T14:37:41.287Z,2.53
2022-08-22T14:40:14.798Z,2.20
2022-08-22T14:43:22.702Z,2.90
2022-08-22T14:46:02.227Z,2.13
2022-08-22T14:48:40.742Z,2.70
2022-08-22T14:51:23.407Z,2.42
2022-08-22T14:53:50.519Z,2.38
2022-08-22T14:56:28.376Z,3.13
2022-08-22T14:59:06.672Z,3.05
2022-08-22T15:01:35.521Z,2.30
2022-08-22T15:04:08.387Z,2.00
2022-08-22T15:06:37.835Z,2.80
2022-08-22T15:09:08.558Z,2.60
2022-08-22T15:11:36.826Z,2.45
2022-08-22T15:14:24.719Z,2.83
2022-08-22T15:16:58.134Z,2.92
2022-08-22T15:19:36.836Z,2.38
2022-08-22T15:22:20.175Z,2.85
2022-08-22T15:25:01.869Z,2.83
2022-08-22T15:27:33.874Z,3.13
2022-08-22T15:30:04.101Z,2.42
2022-08-22T15:32:36.782Z,2.28
2022-08-22T15:35:27.256Z,2.10
2022-08-22T15:38:02.376Z,2.90
2022-08-22T15:40:42.495Z,2.25
2022-08-22T15:43:49.431Z,2.53
2022-08-22T15:46:25.930Z,2.40
2022-08-22T15:49:13.964Z,2.50
2022-08-22T15:51:55.592Z,2.50
2022-08-22T15:54:26.658Z,2.42
2022-08-22T15:57:10.158Z,2.95
2022-08-22T15:59:53.764Z,2.55
2022-08-22T16:02:22.559Z,2.78
2022-08-22T16:04:57.631Z,2.50
2022-08-22T16:07:35.370Z,2.42
2022-08-22T16:10:10.820Z,2.67
2022-08-22T16:12:40.132Z,2.70
2022-08-22T16:15:50.319Z,2.65
2022-08-22T16:18:43.361Z,2.50
2022-08-22T16:21:23.503Z,2.85
2022-08-22T16:23:49.993Z,3.72
2022-08-22T16:26:31.708Z,2.78
2022-08-22T16:29:13.478Z,3.53
2022-08-22T16:31:44.169Z,2.83
2022-08-22T16:34:16.899Z,3.05
2022-08-22T16:37:14.727Z,2.55
2022-08-22T16:39:47.741Z,2.75
2022-08-22T16:42:14.389Z,2.65
2022-08-22T16:44:40.845Z,2.67
2022-08-22T16:47:30.299Z,2.80
2022-08-22T16:50:01.265Z,2.35
2022-08-22T16:52:27.766Z,2.63
2022-08-22T16:54:59.909Z,2.53
2022-08-22T16:58:09.433Z,2.38
2022-08-22T17:00:57.958Z,3.00
2022-08-22T17:03:34.531Z,2.28
2022-08-22T17:06:42.186Z,2.65
2022-08-22T17:09:34.254Z,2.38
2022-08-22T17:12:25.265Z,2.85
2022-08-22T17:15:07.166Z,2.67
2022-08-22T17:17:46.221Z,3.47
2022-08-22T17:20:51.640Z,2.72
2022-08-22T17:23:53.739Z,2.65
2022-08-22T17:26:36.822Z,2.53
2022-08-22T17:29:18.169Z,2.30
2022-08-22T17:32:06.759Z,2.70
2022-08-22T17:34:42.739Z,2.72
2022-08-22T17:37:56.972Z,2.83
2022-08-22T17:40:23.978Z,2.72
2022-08-22T17:42:59.596Z,3.10
2022-08-22T17:45:28.118Z,4.20
2022-08-22T17:48:12.207Z,2.95
2022-08-22T17:50:59.093Z,2.70
2022-08-22T17:53:28.505Z,2.30
2022-08-22T17:56:05.081Z,2.42
2022-08-22T17:58:46.170Z,2.85
2022-08-22T18:01:15.911Z,2.60
2022-08-22T18:03:51.707Z,2.70
2022-08-22T18:06:30.980Z,2.50
2022-08-22T18:09:16.321Z,2.50
2022-08-22T18:11:52.800Z,3.15
2022-08-22T18:14:44.177Z,2.30
2022-08-22T18:17:19.177Z,4.15
2022-08-22T18:19:55.209Z,3.30
2022-08-22T18:22:24.746Z,3.28
2022-08-22T18:25:06.023Z,3.78
2022-08-22T18:27:50.871Z,3.50
2022-08-22T18:30:21.735Z,3.40
2022-08-22T18:33:17.204Z,3.80
2022-08-22T18:35:53.691Z,4.00
2022-08-22T18:38:30.446Z,3.78
2022-08-22T18:40:59.600Z,3.85
2022-08-22T18:43:36.842Z,3.95
2022-08-22T18:46:25.783Z,4.30
2022-08-22T18:49:14.109Z,3.67
2022-08-22T18:51:38.987Z,4.18
2022-08-22T18:54:05.492Z,3.83
2022-08-22T18:56:34.174Z,3.50
2022-08-22T18:59:08.228Z,4.75
2022-08-22T19:01:51.891Z,4.13
2022-08-22T19:04:53.364Z,4.05
2022-08-22T19:07:41.545Z,3.17
2022-08-22T19:10:20.748Z,3.45
2022-08-22T19:13:03.369Z,3.40
2022-08-22T19:15:48.650Z,3.28
2022-08-22T19:18:23.024Z,4.15
2022-08-22T19:21:42.668Z,3.28
2022-08-22T19:24:34.669Z,3.10
2022-08-22T19:27:07.287Z,3.65
2022-08-22T19:29:33.733Z,3.53
2022-08-22T19:32:02.044Z,3.00
2022-08-22T19:34:32.627Z,3.53
2022-08-22T19:37:30.565Z,3.35
2022-08-22T19:40:08.888Z,3.28
2022-08-22T19:42:38.189Z,4.05
2022-08-22T19:45:26.530Z,3.85
2022-08-22T19:48:14.618Z,3.35
2022-08-22T19:50:41.984Z,3.13
2022-08-22T19:53:25.704Z,4.35
2022-08-22T19:56:07.984Z,3.33
2022-08-22T19:58:50.313Z,2.90
2022-08-22T20:01:39.272Z,2.95
2022-08-22T20:04:27.547Z,3.30
2022-08-22T20:07:30.647Z,3.25
2022-08-22T20:10:04.351Z,3.30
2022-08-22T20:12:36.754Z,3.17
2022-08-22T20:15:19.787Z,3.30
2022-08-22T20:18:11.550Z,3.10
2022-08-22T20:20:38.298Z,2.72
2022-08-22T20:23:22.966Z,3.53
2022-08-22T20:25:52.821Z,3.20
2022-08-22T20:28:36.919Z,3.00
2022-08-22T20:31:08.185Z,3.45
2022-08-22T20:33:38.699Z,3.45
2022-08-22T20:36:27.221Z,3.38
2022-08-22T20:39:07.293Z,3.08
2022-08-22T20:41:44.500Z,2.45
2022-08-22T20:44:16.898Z,3.03
2022-08-22T20:47:02.795Z,2.78
2022-08-22T20:49:37.688Z,3.08
2022-08-22T20:52:07.681Z,3.58
2022-08-22T20:54:39.467Z,4.38
2022-08-22T20:57:19.774Z,3.75
2022-08-22T20:59:53.778Z,4.20
2022-08-22T21:02:29.351Z,4.03
2022-08-22T21:05:04.533Z,4.47
2022-08-22T21:07:33.903Z,4.57
2022-08-22T21:10:39.056Z,4.00
2022-08-22T21:13:06.933Z,3.95
2022-08-22T21:15:49.314Z,3.50
2022-08-22T21:18:37.094Z,4.20
2022-08-22T21:21:24.741Z,4.45
2022-08-22T21:23:58.627Z,4.45
2022-08-22T21:26:49.051Z,4.13
2022-08-22T21:29:15.485Z,4.75
2022-08-22T21:32:04.405Z,4.78
2022-08-22T21:34:41.651Z,4.53
2022-08-22T21:37:33.041Z,5.28
2022-08-22T21:40:07.815Z,5.30
2022-08-22T21:42:45.012Z,6.47
2022-08-22T21:45:33.805Z,6.57
2022-08-22T21:48:01.424Z,5.55
2022-08-22T21:50:37.762Z,4.97
2022-08-22T21:53:12.130Z,4.53
2022-08-22T21:55:44.772Z,4.25
2022-08-22T21:58:34.160Z,4.22
2022-08-22T22:01:24.820Z,3.75
2022-08-22T22:03:52.094Z,3.63
2022-08-22T22:06:18.631Z,3.17
2022-08-22T22:08:45.199Z,3.75
2022-08-22T22:11:13.587Z,3.17
2022-08-22T22:13:40.791Z,3.13
2022-08-22T22:16:08.670Z,3.20
2022-08-22T22:18:36.462Z,3.08
2022-08-22T22:21:03.293Z,2.90
2022-08-22T22:23:29.837Z,3.00
2022-08-22T22:25:58.539Z,3.15
2022-08-22T22:28:29.792Z,3.22
2022-08-22T22:30:56.750Z,3.92
2022-08-22T22:33:27.117Z,3.17
2022-08-22T22:35:55.085Z,3.15
2022-08-22T22:38:24.259Z,3.33
2022-08-22T22:40:51.323Z,3.33
2022-08-22T22:43:17.906Z,3.53
2022-08-22T22:45:44.438Z,3.45
2022-08-22T22:48:11.079Z,3.22
2022-08-22T22:50:43.319Z,3.75
2022-08-22T22:53:10.698Z,3.42
2022-08-22T22:55:41.618Z,4.40
2022-08-22T22:58:08.839Z,4.53
2022-08-22T23:00:37.339Z,3.80
2022-08-22T23:03:06.527Z,3.40
2022-08-22T23:05:34.103Z,4.13
2022-08-22T23:08:01.351Z,3.72
2022-08-22T23:10:29.709Z,3.47
2022-08-22T23:12:56.479Z,3.22
2022-08-22T23:15:23.048Z,3.90
2022-08-22T23:17:49.589Z,3.80
2022-08-22T23:20:16.173Z,3.53
2022-08-22T23:22:44.993Z,3.53
2022-08-22T23:25:11.918Z,4.05
2022-08-22T23:27:38.702Z,3.70
2022-08-22T23:30:08.607Z,3.50
2022-08-22T23:32:36.813Z,4.05
2022-08-22T23:35:04.587Z,3.58
2022-08-22T23:37:31.132Z,3.90
2022-08-22T23:39:57.770Z,4.22
2022-08-22T23:42:24.600Z,3.60
2022-08-22T23:44:51.883Z,4.32
2022-08-22T23:47:18.430Z,3.40
2022-08-22T23:49:44.974Z,3.45
2022-08-22T23:52:13.048Z,3.65
2022-08-22T23:54:39.717Z,3.50
2022-08-22T23:57:11.876Z,3.40
2022-08-22T23:59:43.402Z,3.60
